WMKKWMKI

Guest
Details From WMKK - Kuala Lumpur Intl - Sepang
To WMKI - Ipoh/Sultan Azlan Shaw
Flight Number -
Tags generated
Created
Modified
Stats Distance 116 nm / 214 km
Max Altitude 10,200 ft / 3,109 m
Waypoints 3
Social Downloads 2
Likes 0
Share VATSIM

Download

Looking for another format? Having issues loading an existing format? Contact us
Advertisement - Login to hide

Notes

Basic altitude profile: - Ascent Rate: 2500ft/min - Ascent Speed: 250kts - Cruise Altitude: 35000ft - Cruise Speed: 420kts - Descent Rate: 1500ft/min - Descent Speed: 250kts Options: - Use NATs: yes - Use PACOTS: yes - Use low airways: yes - Use high airways: yes

Route

WMKK DAKUS WMKI

ID Type Via Altitude Latitude Longitude Leg Dist Tot Dist Heading (true) Name
O WMKK APT - 0 ft / 0 m 2.74558˚ 101.70991˚ - 0 nm - Kuala Lumpur Intl - Sepang
DAKUS FIX - 10,200 ft / 3,109 m 3.80389˚ 101.31750˚ 67 nm 67 nm 340° / 340° -
O WMKI APT - 0 ft / 0 m 4.56797˚ 101.09219˚ 47 nm 115 nm 344° / 344° Ipoh/Sultan Azlan Shaw

Altitude Profile

Advertisement - Login to hide

WMKK

Details ICAO WMKK (KUL)
Name Kuala Lumpur Intl - Sepang
Region Malaysia (Peninsular Malaysia)
Timezone Asia/Kuala_Lumpur (UTC+8.0)
Stats Elevation 70 ft / 21 m (AMSL)
Location 2.745578° 101.709913°
Runways 2
Magnetic Variation 0.000° E

METAR

WMKK 180300Z 05013KT 010V100 9999 FEW018 BKN280 31/21 Q1012 NOSIG

Decode

TAF

TAF WMKK 172300Z 1800/1906 05008KT 9999 FEW018 SCT140 BKN280 PROB30 TEMPO 1818/1822 3000 TSRA FEW017CB SCT020

Decode

Departure Runways

ID Width Length Bearing (true) Bearing (mag) Surface Threshold Offset Overrun Length
14L 197 ft / 60 m 13,577 ft / 4,138 m 146.13° 146.13° Asphalt 500 ft / 152 m 0 ft / 0 m
14R 197 ft / 60 m 13,337 ft / 4,065 m 146.22° 146.22° Asphalt 500 ft / 152 m 0 ft / 0 m
32L 197 ft / 60 m 13,337 ft / 4,065 m 326.22° 326.22° Asphalt 500 ft / 152 m 0 ft / 0 m
32R 197 ft / 60 m 13,577 ft / 4,138 m 326.13° 326.13° Asphalt 500 ft / 152 m 0 ft / 0 m

WMKI

Details ICAO WMKI (IPH)
Name Ipoh/Sultan Azlan Shaw
Region Malaysia (Peninsular Malaysia)
Timezone Asia/Kuala_Lumpur (UTC+8.0)
Stats Elevation 130 ft / 40 m (AMSL)
Location 4.567972° 101.092195°
Runways 1
Magnetic Variation 0.117° W

METAR

WMKI 180300Z 35004KT 280V030 9999 FEW017CB SCT140 BKN280 28/23 Q1013

Decode

TAF

Not found

Destination Runways

ID Width Length Bearing (true) Bearing (mag) Surface Threshold Offset Overrun Length
04 121 ft / 37 m 5,917 ft / 1,804 m 41.21° 41.33° Asphalt 0 ft / 0 m 0 ft / 0 m
22 121 ft / 37 m 5,917 ft / 1,804 m 221.21° 221.33° Asphalt 0 ft / 0 m 0 ft / 0 m

Approach Navaids

Runway Type Ident Frequency Range Bearing (true) Bearing (mag) Slope Elevation
04 Localiser IPO 110.50 MHz 18 nm / 33 km 41.21° 41.33° - 130 ft / 40 m (AMSL)
04 Glidescope IPO 110.50 MHz 10 nm / 19 km 41.21° 41.33° 3.00° 130 ft / 40 m (AMSL)
04 DME IPO 110.50 MHz 18 nm / 33 km - - - 130 ft / 40 m (AMSL)

Popular Alternatives